Time;durP1;ratioP1;P1;durP2;ratioP2;P2;SDS_P1;SDS_P2;PMS_P1;PMS_P2;Temp;Humidity;BMP_temperature;BMP_pressure;BME280_temperature;BME280_humidity;BME280_pressure;Samples;Min_cycle;Max_cycle;Signal;HPM_P1;HPM_P2
2021/12/16 00:04:55;;;;;;;28.20;11.73;;;;;;;4.59;100.00;102792.66;10402645;28;20481;-85
2021/12/16 00:09:05;;;;;;;35.33;12.45;;;;;;;5.15;100.00;102896.63;10393422;28;20481;-84
2021/12/16 00:34:50;;;;;;;28.13;11.73;;;;;;;6.32;100.00;103085.97;10325023;28;20540;-83
2021/12/16 00:39:50;;;;;;;28.83;11.90;;;;;;;3.28;100.00;102621.41;10308867;28;20072;-84
2021/12/16 00:50:17;;;;;;;34.30;12.15;;;;;;;3.61;100.00;102700.50;10325988;28;20559;-84
2021/12/16 00:55:38;;;;;;;30.25;11.88;;;;;;;3.83;100.00;102822.53;10315372;28;20557;-92
2021/12/16 01:00:40;;;;;;;32.92;12.27;;;;;;;6.05;100.00;103061.53;10326394;28;20120;-92
2021/12/16 01:05:58;;;;;;;25.02;12.73;;;;;;;1.58;100.00;102300.41;10328696;28;20038;-91
2021/12/16 01:58:48;;;;;;;33.38;13.07;;;;;;;5.95;100.00;103092.78;10435782;28;20029;-92
2021/12/16 02:03:53;;;;;;;39.83;13.02;;;;;;;7.19;100.00;103332.69;10390409;28;20041;-92
2021/12/16 02:08:54;;;;;;;31.92;13.85;;;;;;;2.21;100.00;102538.28;10372577;28;20045;-92
2021/12/16 02:35:26;;;;;;;31.80;12.07;;;;;;;5.29;100.00;103024.31;10335201;28;20045;-92
2021/12/16 02:40:26;;;;;;;32.45;14.02;;;;;;;7.20;100.00;103350.84;10319737;28;20029;-92
2021/12/16 02:50:47;;;;;;;33.88;13.75;;;;;;;5.49;100.00;102993.97;10376362;28;20087;-93
2021/12/16 02:55:48;;;;;;;34.53;14.70;;;;;;;4.50;100.00;102900.03;10371744;28;20444;-92
2021/12/16 03:00:53;;;;;;;40.80;15.15;;;;;;;1.48;100.00;102375.63;10355095;28;20132;-92
2021/12/16 03:05:54;;;;;;;37.38;14.27;;;;;;;3.87;100.00;102811.31;10330583;28;20397;-92
2021/12/16 03:11:16;;;;;;;33.53;14.27;;;;;;;5.26;100.00;102994.63;10329269;28;20072;-92
2021/12/16 03:16:32;;;;;;;43.70;15.88;;;;;;;5.16;100.00;103021.22;10334172;28;20042;-83
2021/12/16 03:21:39;;;;;;;27.27;13.60;;;;;;;4.46;100.00;102877.69;10349092;28;20053;-83
2021/12/16 03:37:13;;;;;;;34.50;16.05;;;;;;;3.56;100.00;102732.84;10441325;28;20551;-83
2021/12/16 03:42:16;;;;;;;31.35;15.40;;;;;;;3.74;100.00;102849.88;10404954;28;20041;-83
2021/12/16 03:47:17;;;;;;;28.85;15.25;;;;;;;3.09;100.00;102752.28;10383375;28;20048;-83
2021/12/16 03:52:18;;;;;;;42.78;16.33;;;;;;;6.22;100.00;103270.28;10390137;28;20499;-83
2021/12/16 03:57:20;;;;;;;31.77;15.25;;;;;;;4.18;100.00;103006.03;10439383;28;20041;-83
2021/12/16 04:02:24;;;;;;;41.72;16.63;;;;;;;2.52;100.00;102605.81;10380888;28;20152;-83
2021/12/16 04:07:27;;;;;;;36.15;15.32;;;;;;;5.81;100.00;103189.97;10409435;28;20037;-83
2021/12/16 04:12:28;;;;;;;34.50;15.23;;;;;;;2.88;100.00;102744.47;10407130;28;20045;-83
2021/12/16 04:17:30;;;;;;;32.25;15.63;;;;;;;5.94;100.00;103179.41;10439834;28;20043;-83
2021/12/16 04:22:35;;;;;;;29.60;13.75;;;;;;;3.46;100.00;102775.66;10381376;28;20050;-83
2021/12/16 04:27:35;;;;;;;31.80;16.00;;;;;;;5.82;100.00;103249.94;10382888;28;20397;-83
2021/12/16 04:32:36;;;;;;;41.60;16.55;;;;;;;4.31;100.00;103059.31;10410306;28;20097;-83
2021/12/16 04:37:36;;;;;;;31.33;15.07;;;;;;;6.15;100.00;103279.31;10406369;28;20021;-83
2021/12/16 04:42:37;;;;;;;38.88;14.23;;;;;;;3.64;100.00;103011.56;10422449;28;20033;-83
2021/12/16 04:47:38;;;;;;;37.40;14.15;;;;;;;2.39;100.00;102785.63;10439950;28;20029;-91
2021/12/16 04:52:38;;;;;;;31.63;15.32;;;;;;;6.19;100.00;103275.22;10407468;28;20028;-92
2021/12/16 04:57:39;;;;;;;32.63;15.73;;;;;;;3.78;100.00;102957.53;10424063;28;20037;-93
2021/12/16 05:02:40;;;;;;;29.08;14.20;;;;;;;5.22;100.00;103228.94;10407316;28;20044;-92
2021/12/16 05:07:42;;;;;;;32.95;14.90;;;;;;;5.46;100.00;103214.59;10410917;28;20029;-91
2021/12/16 05:12:51;;;;;;;36.78;14.95;;;;;;;3.05;100.00;102797.16;10416236;28;20039;-92
2021/12/16 05:17:54;;;;;;;32.47;14.07;;;;;;;5.07;100.00;103126.81;10433435;28;20036;-92
2021/12/16 05:28:15;;;;;;;37.95;15.63;;;;;;;4.75;100.00;103171.13;10436042;28;20386;-92
2021/12/16 05:33:16;;;;;;;34.08;14.95;;;;;;;6.42;100.00;103395.84;10429741;28;20063;-83
2021/12/16 05:38:16;;;;;;;31.15;13.65;;;;;;;4.87;100.00;103197.16;10428992;28;20123;-83
2021/12/16 05:43:18;;;;;;;39.53;15.65;;;;;;;6.64;100.00;103430.84;10427519;28;20048;-82
2021/12/16 05:48:21;;;;;;;35.72;15.68;;;;;;;3.47;100.00;103104.16;10406894;28;20046;-90
2021/12/16 05:53:21;;;;;;;40.60;15.80;;;;;;;5.00;100.00;103249.47;10414165;28;20037;-92
2021/12/16 05:58:22;;;;;;;33.33;14.10;;;;;;;3.97;100.00;103101.78;10413130;28;20556;-90
2021/12/16 06:03:22;;;;;;;30.17;14.23;;;;;;;5.12;100.00;103331.13;10385573;28;20045;-90
2021/12/16 06:08:23;;;;;;;36.15;15.93;;;;;;;5.01;100.00;103237.50;10373153;28;20073;-91
2021/12/16 06:13:29;;;;;;;33.85;14.55;;;;;;;5.19;100.00;103307.63;10389887;28;20040;-91
2021/12/16 06:29:08;;;;;;;34.45;15.95;;;;;;;4.13;100.00;103261.06;10353494;28;20049;-92
2021/12/16 06:34:08;;;;;;;42.40;16.80;;;;;;;3.83;100.00;103171.31;10331934;28;20572;-92
2021/12/16 06:39:09;;;;;;;41.08;16.73;;;;;;;4.08;100.00;103226.09;10329917;28;20052;-85
2021/12/16 06:44:19;;;;;;;42.10;16.95;;;;;;;4.89;100.00;103339.78;10351203;28;20029;-84
2021/12/16 06:49:21;;;;;;;34.08;16.55;;;;;;;4.53;100.00;103276.19;10360149;28;20038;-85
2021/12/16 06:54:33;;;;;;;43.53;16.85;;;;;;;4.94;100.00;103285.59;10344498;28;20045;-93
2021/12/16 06:59:39;;;;;;;37.88;17.63;;;;;;;2.48;100.00;102911.63;10332817;28;20037;-94
2021/12/16 07:04:43;;;;;;;47.10;18.10;;;;;;;0.22;100.00;102583.22;10347370;28;20497;-92
2021/12/16 07:09:43;;;;;;;46.70;19.45;;;;;;;4.09;100.00;103128.81;10346513;28;20041;-92
2021/12/16 07:14:44;;;;;;;48.70;19.33;;;;;;;0.86;100.00;102674.69;10346307;28;20084;-93
2021/12/16 07:19:45;;;;;;;46.58;19.35;;;;;;;5.39;100.00;103556.88;10372581;28;20045;-84
2021/12/16 07:24:46;;;;;;;49.05;19.40;;;;;;;4.02;100.00;103305.75;10349553;28;20084;-85
2021/12/16 07:29:46;;;;;;;49.33;21.58;;;;;;;3.97;100.00;103253.53;10382178;28;20049;-84
2021/12/16 07:34:47;;;;;;;54.67;21.90;;;;;;;3.74;100.00;103139.53;10365160;28;20083;-84
2021/12/16 07:39:49;;;;;;;41.60;20.55;;;;;;;4.04;100.00;103260.13;10325159;28;20056;-84
2021/12/16 07:44:49;;;;;;;49.15;20.30;;;;;;;3.01;100.00;103218.38;10359411;28;20136;-93
2021/12/16 07:49:50;;;;;;;45.58;19.48;;;;;;;3.46;100.00;103247.63;10352649;28;20148;-92
2021/12/16 07:54:51;;;;;;;51.47;20.55;;;;;;;4.89;100.00;103429.00;10369204;28;20039;-93
2021/12/16 07:59:51;;;;;;;43.85;19.50;;;;;;;4.79;100.00;103418.16;10350733;28;20041;-84
2021/12/16 08:04:52;;;;;;;42.60;20.75;;;;;;;5.84;100.00;103562.28;10380183;28;20045;-84
2021/12/16 08:09:54;;;;;;;40.95;19.02;;;;;;;4.64;100.00;103293.16;10353218;28;20041;-92
2021/12/16 08:14:54;;;;;;;45.78;19.05;;;;;;;3.02;100.00;103071.28;10368176;28;20175;-92
2021/12/16 08:19:55;;;;;;;45.42;19.65;;;;;;;1.00;100.00;102769.16;10352339;28;20119;-92
2021/12/16 08:24:55;;;;;;;40.05;18.80;;;;;;;4.59;100.00;103393.72;10368368;28;20044;-92
2021/12/16 08:29:56;;;;;;;37.45;17.75;;;;;;;3.91;100.00;103308.69;10352322;28;20036;-92
2021/12/16 08:34:56;;;;;;;38.53;17.20;;;;;;;3.12;100.00;103097.59;10353065;28;20493;-84
2021/12/16 08:39:57;;;;;;;35.10;15.65;;;;;;;5.25;100.00;103394.41;10330884;28;20520;-84
2021/12/16 08:44:58;;;;;;;40.65;17.67;;;;;;;4.04;100.00;103191.97;10322902;28;20061;-93
2021/12/16 08:49:58;;;;;;;45.50;18.73;;;;;;;5.47;100.00;103467.66;10331653;28;20128;-84
2021/12/16 08:55:00;;;;;;;36.97;16.98;;;;;;;5.03;100.00;103349.31;10322206;28;20165;-84
2021/12/16 09:00:00;;;;;;;37.40;16.35;;;;;;;6.02;100.00;103515.81;10350317;28;20124;-83
2021/12/16 09:05:01;;;;;;;45.47;17.38;;;;;;;4.88;100.00;103323.56;10338406;28;20500;-83
2021/12/16 09:10:02;;;;;;;38.13;16.60;;;;;;;6.91;100.00;103636.16;10345202;28;20035;-83
2021/12/16 09:15:07;;;;;;;42.83;17.63;;;;;;;5.26;100.00;103368.78;10308535;28;20042;-84
2021/12/16 09:20:08;;;;;;;47.90;18.05;;;;;;;4.81;100.00;103328.78;10354548;28;20132;-84
2021/12/16 09:25:08;;;;;;;65.82;20.48;;;;;;;2.96;100.00;103077.34;10419456;28;20055;-84
2021/12/16 09:30:14;;;;;;;68.38;22.10;;;;;;;4.79;100.00;103448.16;10365776;28;20034;-83
2021/12/16 09:35:15;;;;;;;70.47;24.17;;;;;;;4.41;100.00;103291.91;10363513;28;20046;-84
2021/12/16 09:40:21;;;;;;;79.88;24.88;;;;;;;5.08;100.00;103499.84;10362983;28;20049;-84
2021/12/16 09:45:21;;;;;;;67.72;25.10;;;;;;;5.76;100.00;103460.22;10362510;28;20049;-84
2021/12/16 09:50:27;;;;;;;88.97;24.75;;;;;;;4.93;100.00;103403.97;10362558;28;20033;-83
2021/12/16 09:55:28;;;;;;;69.27;25.73;;;;;;;3.92;100.00;103343.09;10368754;28;20033;-83
2021/12/16 10:00:30;;;;;;;68.55;23.92;;;;;;;6.60;100.00;103621.06;10352967;28;20715;-83
2021/12/16 10:05:34;;;;;;;56.78;23.85;;;;;;;5.90;100.00;103573.63;10384956;28;20029;-83
2021/12/16 10:10:34;;;;;;;67.60;23.65;;;;;;;5.65;100.00;103466.78;10371757;28;20486;-92
2021/12/16 10:20:37;;;;;;;76.85;24.35;;;;;;;4.96;100.00;103380.97;10366924;28;20042;-84
2021/12/16 10:25:38;;;;;;;74.07;25.98;;;;;;;7.55;100.00;103732.56;10344352;28;20394;-84
2021/12/16 10:30:45;;;;;;;60.85;23.10;;;;;;;7.48;100.00;103733.22;10359605;28;20263;-84
2021/12/16 10:35:47;;;;;;;97.90;25.77;;;;;;;5.40;100.00;103507.56;10355109;28;20038;-84
2021/12/16 10:40:57;;;;;;;90.75;25.90;;;;;;;3.89;100.00;103136.28;10368805;28;20032;-84
2021/12/16 10:46:13;;;;;;;82.15;26.20;;;;;;;4.61;100.00;103353.50;10367008;28;20410;-85
2021/12/16 10:51:22;;;;;;;63.57;25.03;;;;;;;4.12;100.00;103191.22;10369195;28;20165;-84
2021/12/16 10:56:45;;;;;;;97.88;29.95;;;;;;;7.46;100.00;103728.91;10384696;28;20692;-83
2021/12/16 11:02:02;;;;;;;99.38;25.45;;;;;;;6.10;100.00;103534.19;10363674;28;20041;-82
2021/12/16 11:07:17;;;;;;;65.75;24.52;;;;;;;7.48;100.00;103771.59;10366692;28;20153;-83
2021/12/16 11:12:22;;;;;;;75.20;23.27;;;;;;;3.59;100.00;103092.03;10347987;28;20450;-84
2021/12/16 11:17:25;;;;;;;102.32;29.73;;;;;;;7.12;100.00;103676.84;10358278;28;20038;-84
2021/12/16 11:22:31;;;;;;;76.65;25.20;;;;;;;6.31;100.00;103566.66;10359268;28;20088;-92
2021/12/16 11:27:34;;;;;;;59.67;18.58;;;;;;;4.51;100.00;103325.41;10385108;28;20486;-89
2021/12/16 11:32:37;;;;;;;84.88;25.15;;;;;;;6.56;100.00;103581.34;10366820;28;20068;-84
2021/12/16 11:37:46;;;;;;;93.15;25.25;;;;;;;5.50;100.00;103432.84;10366230;28;20049;-84
2021/12/16 11:43:02;;;;;;;79.85;26.42;;;;;;;3.86;100.00;103330.06;10382319;28;20048;-86
2021/12/16 11:48:03;;;;;;;91.57;28.30;;;;;;;2.98;100.00;103042.66;10367292;28;20132;-91
2021/12/16 11:53:04;;;;;;;101.28;28.02;;;;;;;3.42;100.00;103189.88;10385267;28;20043;-91
2021/12/16 11:58:06;;;;;;;138.68;28.20;;;;;;;5.73;100.00;103447.72;10368732;28;20124;-91
2021/12/16 12:03:13;;;;;;;101.82;30.13;;;;;;;4.42;100.00;103362.66;10382469;28;20040;-85
2021/12/16 12:08:25;;;;;;;95.90;29.00;;;;;;;6.58;100.00;103631.31;10378500;28;20108;-90
2021/12/16 12:13:28;;;;;;;75.97;23.98;;;;;;;7.71;100.00;103792.09;10368562;28;20092;-90
2021/12/16 12:18:59;;;;;;;70.15;24.65;;;;;;;5.56;100.00;103383.00;10366609;28;20041;-93
2021/12/16 12:23:59;;;;;;;82.38;31.85;;;;;;;7.71;100.00;103732.66;10321109;28;20054;-94
2021/12/16 12:29:17;;;;;;;104.82;32.17;;;;;;;5.36;100.00;103393.28;10344157;28;20042;-91
2021/12/16 12:34:18;;;;;;;107.13;32.55;;;;;;;6.09;100.00;103625.44;10326241;28;20120;-87
2021/12/16 12:39:21;;;;;;;104.38;32.08;;;;;;;4.65;100.00;103417.66;10323555;28;20557;-87
2021/12/16 12:44:21;;;;;;;104.68;30.77;;;;;;;4.27;100.00;103338.78;10340065;28;20045;-84
2021/12/16 12:49:25;;;;;;;89.95;31.20;;;;;;;4.19;100.00;103253.13;10324213;28;20061;-93
2021/12/16 12:54:28;;;;;;;99.75;30.20;;;;;;;6.26;100.00;103645.59;10312988;28;20084;-93
2021/12/16 12:59:36;;;;;;;81.32;28.55;;;;;;;5.41;100.00;103369.91;10325810;28;20033;-85
2021/12/16 13:05:17;;;;;;;82.55;28.15;;;;;;;6.74;100.00;103762.00;10324665;28;20049;-85
2021/12/16 13:10:23;;;;;;;77.90;24.73;;;;;;;5.29;100.00;103450.41;10324354;28;20042;-85
2021/12/16 13:15:36;;;;;;;69.97;24.27;;;;;;;3.07;100.00;103173.41;10339672;28;20034;-85
2021/12/16 13:31:44;;;;;;;71.22;25.13;;;;;;;7.56;100.00;103729.66;10373793;28;20546;-86
2021/12/16 13:36:48;;;;;;;86.82;27.67;;;;;;;4.89;100.00;103385.34;10374810;28;20037;-89
2021/12/16 13:42:05;;;;;;;73.68;26.13;;;;;;;7.58;100.00;103908.56;10358116;28;20037;-86
2021/12/16 13:47:14;;;;;;;72.93;24.63;;;;;;;4.71;100.00;103388.03;10315978;28;20046;-86
2021/12/16 14:03:15;;;;;;;74.57;24.20;;;;;;;5.44;100.00;103562.75;10402320;28;20489;-87
2021/12/16 14:08:39;;;;;;;58.10;23.33;;;;;;;3.98;100.00;103328.88;10373685;28;20038;-86
2021/12/16 14:24:27;;;;;;;65.20;25.02;;;;;;;4.79;100.00;103369.03;10362250;28;20078;-86
2021/12/16 14:50:42;;;;;;;100.07;30.15;;;;;;;7.48;100.00;103894.97;10351130;28;20088;-90
2021/12/16 14:55:42;;;;;;;87.45;29.15;;;;;;;4.45;100.00;103378.72;10328319;28;20166;-86
2021/12/16 15:00:51;;;;;;;83.32;29.02;;;;;;;4.69;100.00;103368.22;10329229;28;20034;-90
2021/12/16 15:05:57;;;;;;;84.32;28.40;;;;;;;4.36;100.00;103316.91;10314791;28;20029;-91
2021/12/16 15:10:58;;;;;;;81.60;26.13;;;;;;;4.29;100.00;103293.13;10344076;28;20030;-86
2021/12/16 15:16:26;;;;;;;78.35;26.60;;;;;;;5.73;100.00;103636.34;10329216;28;20045;-84
2021/12/16 15:42:57;;;;;;;79.35;28.00;;;;;;;5.58;100.00;103722.56;10351610;28;20065;-88
2021/12/16 15:47:59;;;;;;;76.53;24.67;;;;;;;6.85;100.00;103780.06;10337676;28;20048;-89
2021/12/16 15:53:00;;;;;;;88.60;28.42;;;;;;;5.56;100.00;103566.09;10365663;28;20041;-91
2021/12/16 15:58:09;;;;;;;96.70;29.60;;;;;;;7.02;100.00;103831.22;10355070;28;20073;-91
2021/12/16 16:03:11;;;;;;;95.95;30.25;;;;;;;6.44;100.00;103723.06;10380779;28;20667;-88
2021/12/16 16:08:13;;;;;;;106.72;29.63;;;;;;;6.76;100.00;103808.38;10330995;28;20038;-88
2021/12/16 16:13:20;;;;;;;99.43;29.65;;;;;;;6.02;100.00;103701.78;10348747;28;20076;-82
2021/12/16 16:23:30;;;;;;;111.45;32.45;;;;;;;7.41;100.00;103891.13;10364240;28;20151;-88
2021/12/16 16:28:30;;;;;;;99.35;30.17;;;;;;;4.40;100.00;103385.63;10336907;28;20042;-88
2021/12/16 16:33:33;;;;;;;95.32;28.92;;;;;;;4.73;100.00;103489.72;10350344;28;20501;-89
2021/12/16 16:38:42;;;;;;;100.90;30.17;;;;;;;4.22;100.00;103361.91;10333839;28;20026;-90
2021/12/16 16:43:44;;;;;;;126.82;31.70;;;;;;;6.97;100.00;103844.53;10338529;28;20377;-82
2021/12/16 16:54:04;;;;;;;116.45;33.35;;;;;;;6.22;100.00;103732.59;10354344;28;20389;-88
2021/12/16 16:59:06;;;;;;;;;;;;;;;7.36;100.00;103898.97;10380291;28;20162;-88
2021/12/16 17:04:09;;;;;;;134.68;36.00;;;;;;;4.35;100.00;103499.78;10346226;28;19915;-82
2021/12/16 17:09:09;;;;;;;127.43;36.40;;;;;;;6.84;100.00;103967.28;10342930;28;20074;-82
2021/12/16 17:14:14;;;;;;;109.60;32.03;;;;;;;4.10;100.00;103487.66;10369610;28;20457;-82
2021/12/16 17:19:15;;;;;;;99.22;26.83;;;;;;;7.34;100.00;103906.50;10371978;28;20107;-83
2021/12/16 17:24:22;;;;;;;120.55;30.85;;;;;;;5.11;100.00;103652.50;10349781;28;20042;-89
2021/12/16 17:29:25;;;;;;;92.45;27.63;;;;;;;7.33;100.00;104038.22;10348055;28;21050;-89
2021/12/16 17:34:54;;;;;;;115.15;26.98;;;;;;;3.89;100.00;103411.53;10356816;28;20042;-88
2021/12/16 17:39:59;;;;;;;87.38;25.33;;;;;;;6.48;100.00;103833.09;10360022;28;20469;-90
2021/12/16 17:45:03;;;;;;;101.07;25.40;;;;;;;7.07;100.00;103922.00;10366950;28;20052;-89
2021/12/16 17:50:06;;;;;;;113.00;29.65;;;;;;;6.80;100.00;103905.63;10356105;28;20022;-90
2021/12/16 17:55:10;;;;;;;94.05;28.85;;;;;;;4.34;100.00;103547.16;10337231;28;20041;-84
2021/12/16 18:00:35;;;;;;;130.80;29.63;;;;;;;7.26;100.00;103948.38;10357793;28;20324;-84
2021/12/16 18:05:42;;;;;;;132.45;31.92;;;;;;;4.61;100.00;103563.59;10358567;28;20040;-94
2021/12/16 18:10:42;;;;;;;119.57;29.25;;;;;;;5.50;100.00;103790.78;10349248;28;20025;-86
2021/12/16 18:15:43;;;;;;;94.90;26.75;;;;;;;6.12;100.00;103739.13;10377456;28;20037;-85
2021/12/16 18:20:46;;;;;;;112.10;28.17;;;;;;;4.73;100.00;103616.09;10364580;28;20046;-92
2021/12/16 18:25:48;;;;;;;97.85;26.85;;;;;;;5.90;100.00;103830.66;10346660;28;20605;-85
2021/12/16 18:30:58;;;;;;;106.70;28.52;;;;;;;4.24;100.00;103528.09;10357329;28;20034;-93
2021/12/16 18:36:01;;;;;;;112.18;28.65;;;;;;;7.22;100.00;104096.84;10330664;28;20113;-86
2021/12/16 18:41:06;;;;;;;101.82;27.27;;;;;;;4.43;100.00;103521.72;10314126;28;20030;-84
2021/12/16 18:46:07;;;;;;;105.05;27.95;;;;;;;5.48;100.00;103703.53;10328921;28;20049;-90
2021/12/16 18:56:13;;;;;;;117.55;29.90;;;;;;;5.33;100.00;103703.13;10329967;28;20073;-88
2021/12/16 19:01:23;;;;;;;124.40;30.67;;;;;;;3.58;100.00;103458.91;10363599;28;20037;-91
2021/12/16 19:06:26;;;;;;;116.68;30.20;;;;;;;1.77;100.00;103223.47;10379268;28;20032;-94
2021/12/16 19:11:27;;;;;;;116.68;31.50;;;;;;;2.02;100.00;103387.00;10394521;28;20476;-93
2021/12/16 19:16:28;;;;;;;129.38;31.85;;;;;;;4.14;100.00;103669.91;10392313;28;20064;-87
2021/12/16 19:21:30;;;;;;;133.07;32.05;;;;;;;4.48;100.00;103557.59;10422528;28;20075;-87
2021/12/16 19:26:31;;;;;;;118.00;30.58;;;;;;;5.38;100.00;103818.31;10449908;28;20043;-87
2021/12/16 19:31:32;;;;;;;105.60;29.67;;;;;;;3.15;100.00;103449.28;10450913;28;20032;-92
2021/12/16 19:36:32;;;;;;;114.10;31.30;;;;;;;3.61;100.00;103506.78;10468747;28;20047;-88
2021/12/16 19:41:33;;;;;;;92.43;27.60;;;;;;;1.85;100.00;103154.03;10472484;28;20025;-87
2021/12/16 19:46:35;;;;;;;112.88;29.95;;;;;;;5.06;100.00;103714.88;10476076;28;20043;-93
2021/12/16 19:51:37;;;;;;;107.00;30.55;;;;;;;5.69;100.00;103771.59;10448258;28;20458;-87
2021/12/16 19:56:39;;;;;;;110.32;30.52;;;;;;;3.75;100.00;103620.78;10392121;28;20033;-93
2021/12/16 20:01:41;;;;;;;100.10;29.73;;;;;;;5.33;100.00;103732.31;10379625;28;20033;-87
2021/12/16 20:06:42;;;;;;;95.40;28.05;;;;;;;5.29;100.00;103872.94;10367965;28;20037;-87
2021/12/16 20:11:46;;;;;;;101.55;28.73;;;;;;;3.72;100.00;103483.97;10367758;28;20029;-87
2021/12/16 20:16:53;;;;;;;87.53;25.67;;;;;;;5.17;100.00;103719.31;10383740;28;20034;-93
2021/12/16 20:22:00;;;;;;;85.00;24.98;;;;;;;3.68;100.00;103537.91;10368162;28;20397;-87
2021/12/16 20:27:17;;;;;;;91.60;25.45;;;;;;;3.43;100.00;103469.38;10382722;28;20128;-87
2021/12/16 20:32:48;;;;;;;83.28;23.92;;;;;;;3.40;100.00;103535.00;10406314;28;20056;-92
2021/12/16 20:37:49;;;;;;;77.00;24.73;;;;;;;5.21;100.00;103750.78;10445106;28;20029;-87
2021/12/16 20:42:52;;;;;;;79.78;23.60;;;;;;;5.18;100.00;103757.38;10479366;28;20032;-92
2021/12/16 20:47:55;;;;;;;82.15;24.20;;;;;;;1.36;100.00;103187.31;10461656;28;20029;-86
2021/12/16 20:52:55;;;;;;;76.55;24.05;;;;;;;4.52;100.00;103558.16;10462662;28;20047;-87
2021/12/16 20:58:01;;;;;;;77.60;24.73;;;;;;;3.24;100.00;103458.47;10447574;28;20036;-93
2021/12/16 21:03:03;;;;;;;80.82;28.02;;;;;;;1.92;100.00;103239.38;10466002;28;20108;-93
2021/12/16 21:08:05;;;;;;;75.85;26.98;;;;;;;4.48;100.00;103611.31;10448947;28;20563;-93
2021/12/16 21:13:06;;;;;;;74.35;26.02;;;;;;;5.53;100.00;103765.91;10447227;28;20028;-93
2021/12/16 21:18:06;;;;;;;78.05;25.15;;;;;;;2.50;100.00;103345.53;10447128;28;20048;-93
2021/12/16 21:23:09;;;;;;;71.68;25.30;;;;;;;2.73;100.00;103462.22;10446776;28;20059;-87
2021/12/16 21:28:10;;;;;;;61.97;23.95;;;;;;;2.54;100.00;103269.97;10462676;28;20053;-92
2021/12/16 21:33:13;;;;;;;57.28;24.20;;;;;;;7.08;100.00;104104.53;10448018;28;20056;-93
2021/12/16 21:38:13;;;;;;;54.08;23.15;;;;;;;2.48;100.00;103306.75;10428796;28;20042;-93
2021/12/16 21:43:14;;;;;;;49.45;22.17;;;;;;;4.93;100.00;103654.28;10371923;28;20118;-85
2021/12/16 21:48:15;;;;;;;51.10;23.08;;;;;;;7.09;100.00;104127.34;10363988;28;20107;-85
2021/12/16 21:53:16;;;;;;;45.33;21.10;;;;;;;2.87;100.00;103439.22;10386916;28;20557;-87
2021/12/16 21:58:19;;;;;;;51.17;22.58;;;;;;;3.14;100.00;103463.03;10372417;28;20033;-92
2021/12/16 22:03:27;;;;;;;43.47;21.98;;;;;;;2.72;100.00;103278.28;10373121;28;20048;-93
2021/12/16 22:08:28;;;;;;;46.92;21.50;;;;;;;5.69;100.00;103864.53;10373057;28;20044;-92
2021/12/16 22:13:28;;;;;;;40.58;19.23;;;;;;;6.25;100.00;103926.53;10405672;28;20068;-92
2021/12/16 22:18:29;;;;;;;35.22;16.30;;;;;;;3.56;100.00;103599.00;10387384;28;20057;-92
2021/12/16 22:23:30;;;;;;;39.33;18.10;;;;;;;7.06;100.00;104073.69;10331567;28;20060;-93
2021/12/16 22:28:31;;;;;;;32.33;17.65;;;;;;;5.44;100.00;103872.38;10315810;28;20099;-93
2021/12/16 22:33:33;;;;;;;37.33;17.80;;;;;;;2.72;100.00;103396.09;10331903;28;20032;-93
2021/12/16 22:38:34;;;;;;;40.47;18.48;;;;;;;5.03;100.00;103773.38;10315315;28;20022;-93
2021/12/16 22:43:35;;;;;;;44.75;20.65;;;;;;;7.06;100.00;104045.44;10315155;28;20390;-93
2021/12/16 22:48:39;;;;;;;41.17;20.58;;;;;;;4.42;100.00;103681.81;10347253;28;20084;-91
2021/12/16 22:53:41;;;;;;;53.85;21.75;;;;;;;3.53;100.00;103585.63;10347161;28;20034;-93
2021/12/16 22:58:42;;;;;;;46.78;21.33;;;;;;;1.86;100.00;103144.88;10354918;28;20037;-92
2021/12/16 23:03:42;;;;;;;54.40;22.85;;;;;;;4.15;100.00;103540.72;10323558;28;20090;-87
2021/12/16 23:08:44;;;;;;;49.63;22.60;;;;;;;3.80;100.00;103544.06;10328117;28;20025;-87
2021/12/16 23:13:45;;;;;;;58.10;24.27;;;;;;;3.83;100.00;103525.56;10328041;28;20038;-86
2021/12/16 23:23:58;;;;;;;68.22;23.83;;;;;;;1.68;100.00;103213.47;10331750;28;20037;-92
2021/12/16 23:28:59;;;;;;;63.65;24.83;;;;;;;3.79;100.00;103537.75;10334143;28;20065;-93
2021/12/16 23:34:00;;;;;;;64.90;22.58;;;;;;;5.16;100.00;103802.25;10365753;28;20065;-93
2021/12/16 23:39:06;;;;;;;59.33;22.23;;;;;;;5.47;100.00;103877.53;10332565;28;20029;-92
2021/12/16 23:54:30;;;;;;;72.28;25.65;;;;;;;5.53;100.00;103809.63;10373510;28;20097;-92
2021/12/16 23:59:32;;;;;;;75.78;25.25;;;;;;;3.73;100.00;103573.75;10352760;28;20116;-92
